Terminal Aerodrome Forecast
Issued by NWS

Home | Current Version | Previous Version | Text Only | Print | Product List | Glossary On
Versions: 1 2 3 4 5 6 7 8 9 10 11 12 13 14 15 16 17 18 19
000
FTUS46 KSEW 201700
TAFHQM
TAF
KHQM 201727Z 2018/2118 17009KT P6SM -SHRA SCT025 OVC050
     FM210100 14005KT P6SM VCSH SCT025 OVC035
     FM210600 16008KT P6SM VCSH OVC020=

USA.gov is the U.S. government's official web portal to all federal, state and local government web resources and services.